sensor_id;sensor_type;location;lat;lon;timestamp;pressure;altitude;pressure_sealevel;temperature
24740;BMP280;45234;48.148;17.128;2023-10-08T00:01:10;100160.91;;;20.58
24740;BMP280;45234;48.148;17.128;2023-10-08T00:03:46;100168.28;;;20.56
24740;BMP280;45234;48.148;17.128;2023-10-08T00:06:19;100159.09;;;20.58
24740;BMP280;45234;48.148;17.128;2023-10-08T00:08:48;100158.28;;;20.58
24740;BMP280;45234;48.148;17.128;2023-10-08T00:11:15;100150.88;;;20.55
24740;BMP280;45234;48.148;17.128;2023-10-08T00:13:45;100160.91;;;20.53
24740;BMP280;45234;48.148;17.128;2023-10-08T00:16:16;100164.56;;;20.47
24740;BMP280;45234;48.148;17.128;2023-10-08T00:18:46;100152.97;;;20.42
24740;BMP280;45234;48.148;17.128;2023-10-08T00:21:21;100144.81;;;20.39
24740;BMP280;45234;48.148;17.128;2023-10-08T00:23:56;100139.03;;;20.37
24740;BMP280;45234;48.148;17.128;2023-10-08T00:26:28;100123.44;;;20.35
24740;BMP280;45234;48.148;17.128;2023-10-08T00:29:04;100118.19;;;20.35
24740;BMP280;45234;48.148;17.128;2023-10-08T00:31:44;100125.03;;;20.36
24740;BMP280;45234;48.148;17.128;2023-10-08T00:34:12;100122.66;;;20.35
24740;BMP280;45234;48.148;17.128;2023-10-08T00:36:45;100112.88;;;20.25
24740;BMP280;45234;48.148;17.128;2023-10-08T00:39:17;100110.53;;;20.24
24740;BMP280;45234;48.148;17.128;2023-10-08T00:41:52;100114.97;;;20.18
24740;BMP280;45234;48.148;17.128;2023-10-08T00:44:34;100111.00;;;20.11
24740;BMP280;45234;48.148;17.128;2023-10-08T00:47:21;100110.72;;;20.07
24740;BMP280;45234;48.148;17.128;2023-10-08T00:49:53;100115.69;;;20.03
24740;BMP280;45234;48.148;17.128;2023-10-08T00:52:43;100103.56;;;19.97
24740;BMP280;45234;48.148;17.128;2023-10-08T00:55:24;100101.69;;;19.93
24740;BMP280;45234;48.148;17.128;2023-10-08T00:57:59;100102.72;;;19.87
24740;BMP280;45234;48.148;17.128;2023-10-08T01:00:35;100092.47;;;19.85
24740;BMP280;45234;48.148;17.128;2023-10-08T01:03:08;100094.28;;;19.80
24740;BMP280;45234;48.148;17.128;2023-10-08T01:05:43;100094.28;;;19.80
24740;BMP280;45234;48.148;17.128;2023-10-08T01:08:15;100103.75;;;19.81
24740;BMP280;45234;48.148;17.128;2023-10-08T01:10:59;100106.91;;;19.83
24740;BMP280;45234;48.148;17.128;2023-10-08T01:13:30;100103.47;;;19.82
24740;BMP280;45234;48.148;17.128;2023-10-08T01:16:03;100103.75;;;19.86
24740;BMP280;45234;48.148;17.128;2023-10-08T01:18:30;100114.03;;;19.87
24740;BMP280;45234;48.148;17.128;2023-10-08T01:20:59;100100.09;;;19.87
24740;BMP280;45234;48.148;17.128;2023-10-08T01:23:39;100089.06;;;19.85
24740;BMP280;45234;48.148;17.128;2023-10-08T01:26:06;100079.84;;;19.87
24740;BMP280;45234;48.148;17.128;2023-10-08T01:28:41;100093.78;;;19.88
24740;BMP280;45234;48.148;17.128;2023-10-08T01:31:10;100087.47;;;19.89
24740;BMP280;45234;48.148;17.128;2023-10-08T01:33:39;100078.56;;;19.90
24740;BMP280;45234;48.148;17.128;2023-10-08T01:36:14;100081.69;;;19.92
24740;BMP280;45234;48.148;17.128;2023-10-08T01:38:41;100074.34;;;19.94
24740;BMP280;45234;48.148;17.128;2023-10-08T01:41:16;100074.34;;;19.94
24740;BMP280;45234;48.148;17.128;2023-10-08T01:43:47;100074.84;;;19.91
24740;BMP280;45234;48.148;17.128;2023-10-08T01:46:15;100070.38;;;19.91
24740;BMP280;45234;48.148;17.128;2023-10-08T01:48:43;100064.31;;;19.91
24740;BMP280;45234;48.148;17.128;2023-10-08T01:51:12;100073.56;;;19.93
24740;BMP280;45234;48.148;17.128;2023-10-08T01:53:54;100064.31;;;19.91
24740;BMP280;45234;48.148;17.128;2023-10-08T01:56:22;100060.66;;;19.92
24740;BMP280;45234;48.148;17.128;2023-10-08T01:58:49;100057.50;;;19.90
24740;BMP280;45234;48.148;17.128;2023-10-08T02:01:22;100046.13;;;19.79
24740;BMP280;45234;48.148;17.128;2023-10-08T02:03:51;100041.66;;;19.80
24740;BMP280;45234;48.148;17.128;2023-10-08T02:06:18;100052.19;;;19.80
24740;BMP280;45234;48.148;17.128;2023-10-08T02:08:47;100042.72;;;19.79
24740;BMP280;45234;48.148;17.128;2023-10-08T02:11:15;100044.28;;;19.80
24740;BMP280;45234;48.148;17.128;2023-10-08T02:13:42;100035.88;;;19.83
24740;BMP280;45234;48.148;17.128;2023-10-08T02:16:09;100031.19;;;19.85
24740;BMP280;45234;48.148;17.128;2023-10-08T02:18:36;100031.69;;;19.87
24740;BMP280;45234;48.148;17.128;2023-10-08T02:21:04;100032.25;;;19.89
24740;BMP280;45234;48.148;17.128;2023-10-08T02:23:33;100033.81;;;19.90
24740;BMP280;45234;48.148;17.128;2023-10-08T02:26:01;100031.19;;;19.90
24740;BMP280;45234;48.148;17.128;2023-10-08T02:28:29;100034.31;;;19.87
24740;BMP280;45234;48.148;17.128;2023-10-08T02:30:56;100034.84;;;19.84
24740;BMP280;45234;48.148;17.128;2023-10-08T02:33:22;100031.66;;;19.82
24740;BMP280;45234;48.148;17.128;2023-10-08T02:35:49;100021.66;;;19.79
24740;BMP280;45234;48.148;17.128;2023-10-08T02:38:18;100020.63;;;19.80
24740;BMP280;45234;48.148;17.128;2023-10-08T02:40:48;100030.09;;;19.81
24740;BMP280;45234;48.148;17.128;2023-10-08T02:43:17;100033.53;;;19.81
24740;BMP280;45234;48.148;17.128;2023-10-08T02:45:45;100020.09;;;19.83
24740;BMP280;45234;48.148;17.128;2023-10-08T02:48:17;100026.97;;;19.84
24740;BMP280;45234;48.148;17.128;2023-10-08T02:50:45;100022.72;;;19.83
24740;BMP280;45234;48.148;17.128;2023-10-08T02:53:13;100028.25;;;19.81
24740;BMP280;45234;48.148;17.128;2023-10-08T02:55:46;100032.44;;;19.77
24740;BMP280;45234;48.148;17.128;2023-10-08T02:58:14;100017.41;;;19.68
24740;BMP280;45234;48.148;17.128;2023-10-08T03:00:43;100012.66;;;19.59
24740;BMP280;45234;48.148;17.128;2023-10-08T03:03:10;100017.88;;;19.54
24740;BMP280;45234;48.148;17.128;2023-10-08T03:05:48;100027.81;;;19.47
24740;BMP280;45234;48.148;17.128;2023-10-08T03:08:19;100025.66;;;19.39
24740;BMP280;45234;48.148;17.128;2023-10-08T03:10:48;100022.28;;;19.07
24740;BMP280;45234;48.148;17.128;2023-10-08T03:13:16;100020.94;;;19.36
24740;BMP280;45234;48.148;17.128;2023-10-08T03:15:44;100026.75;;;19.43
24740;BMP280;45234;48.148;17.128;2023-10-08T03:18:25;100019.69;;;19.49
24740;BMP280;45234;48.148;17.128;2023-10-08T03:20:52;100020.19;;;19.51
24740;BMP280;45234;48.148;17.128;2023-10-08T03:23:19;100017.88;;;19.54
24740;BMP280;45234;48.148;17.128;2023-10-08T03:26:01;100027.34;;;19.55
24740;BMP280;45234;48.148;17.128;2023-10-08T03:28:38;100016.31;;;19.58
24740;BMP280;45234;48.148;17.128;2023-10-08T03:31:08;100019.47;;;19.60
24740;BMP280;45234;48.148;17.128;2023-10-08T03:33:45;100008.69;;;19.62
24740;BMP280;45234;48.148;17.128;2023-10-08T03:36:16;100012.97;;;19.68
24740;BMP280;45234;48.148;17.128;2023-10-08T03:39:01;100015.31;;;19.70
24740;BMP280;45234;48.148;17.128;2023-10-08T03:41:38;100011.91;;;19.74
24740;BMP280;45234;48.148;17.128;2023-10-08T03:44:07;100016.38;;;19.74
24740;BMP280;45234;48.148;17.128;2023-10-08T03:46:41;100021.09;;;19.72
24740;BMP280;45234;48.148;17.128;2023-10-08T03:49:10;100009.53;;;19.68
24740;BMP280;45234;48.148;17.128;2023-10-08T03:51:50;100002.66;;;19.61
24740;BMP280;45234;48.148;17.128;2023-10-08T03:54:21;100006.06;;;19.57
24740;BMP280;45234;48.148;17.128;2023-10-08T03:57:01;100007.03;;;19.51
24740;BMP280;45234;48.148;17.128;2023-10-08T03:59:30;100014.94;;;19.46
24740;BMP280;45234;48.148;17.128;2023-10-08T04:02:02;100022.00;;;19.40
24740;BMP280;45234;48.148;17.128;2023-10-08T04:04:49;100009.38;;;19.37
24740;BMP280;45234;48.148;17.128;2023-10-08T04:07:21;100008.81;;;19.35
24740;BMP280;45234;48.148;17.128;2023-10-08T04:09:53;100016.16;;;19.33
24740;BMP280;45234;48.148;17.128;2023-10-08T04:12:46;100020.31;;;19.29
24740;BMP280;45234;48.148;17.128;2023-10-08T04:15:18;100016.38;;;19.26
24740;BMP280;45234;48.148;17.128;2023-10-08T04:17:46;100025.88;;;19.27
24740;BMP280;45234;48.148;17.128;2023-10-08T04:20:18;100020.84;;;19.26
24740;BMP280;45234;48.148;17.128;2023-10-08T04:23:07;100021.38;;;19.23
24740;BMP280;45234;48.148;17.128;2023-10-08T04:25:44;100013.50;;;19.23
24740;BMP280;45234;48.148;17.128;2023-10-08T04:28:11;100010.31;;;19.21
24740;BMP280;45234;48.148;17.128;2023-10-08T04:30:44;100015.03;;;19.19
24740;BMP280;45234;48.148;17.128;2023-10-08T04:33:14;100011.91;;;19.22
24740;BMP280;45234;48.148;17.128;2023-10-08T04:35:44;100025.03;;;19.22
24740;BMP280;45234;48.148;17.128;2023-10-08T04:38:24;100012.69;;;19.22
24740;BMP280;45234;48.148;17.128;2023-10-08T04:40:56;100011.66;;;19.23
24740;BMP280;45234;48.148;17.128;2023-10-08T04:43:29;100011.94;;;19.27
24740;BMP280;45234;48.148;17.128;2023-10-08T04:45:59;99995.38;;;19.26
24740;BMP280;45234;48.148;17.128;2023-10-08T04:48:32;100005.34;;;19.24
24740;BMP280;45234;48.148;17.128;2023-10-08T04:51:00;100005.09;;;19.26
24740;BMP280;45234;48.148;17.128;2023-10-08T04:53:31;99996.69;;;19.24
24740;BMP280;45234;48.148;17.128;2023-10-08T04:56:04;99999.81;;;19.26
24740;BMP280;45234;48.148;17.128;2023-10-08T04:58:34;99988.78;;;19.29
24740;BMP280;45234;48.148;17.128;2023-10-08T05:01:04;99989.88;;;19.33
24740;BMP280;45234;48.148;17.128;2023-10-08T05:03:54;99992.00;;;19.31
24740;BMP280;45234;48.148;17.128;2023-10-08T05:06:28;99988.06;;;19.39
24740;BMP280;45234;48.148;17.128;2023-10-08T05:09:12;99993.84;;;19.36
24740;BMP280;45234;48.148;17.128;2023-10-08T05:11:52;99992.09;;;19.46
24740;BMP280;45234;48.148;17.128;2023-10-08T05:14:22;99988.44;;;19.52
24740;BMP280;45234;48.148;17.128;2023-10-08T05:17:08;99985.25;;;19.50
24740;BMP280;45234;48.148;17.128;2023-10-08T05:19:45;100005.53;;;19.60
24740;BMP280;45234;48.148;17.128;2023-10-08T05:22:16;100000.84;;;19.67
24740;BMP280;45234;48.148;17.128;2023-10-08T05:24:58;100005.06;;;19.73
24740;BMP280;45234;48.148;17.128;2023-10-08T05:27:36;100006.69;;;19.79
24740;BMP280;45234;48.148;17.128;2023-10-08T05:30:21;100021.41;;;19.80
24740;BMP280;45234;48.148;17.128;2023-10-08T05:33:00;100014.31;;;19.86
24740;BMP280;45234;48.148;17.128;2023-10-08T05:35:30;100026.69;;;19.90
24740;BMP280;45234;48.148;17.128;2023-10-08T05:38:17;100016.97;;;19.91
24740;BMP280;45234;48.148;17.128;2023-10-08T05:41:01;100024.09;;;19.95
24740;BMP280;45234;48.148;17.128;2023-10-08T05:43:30;100016.22;;;19.95
24740;BMP280;45234;48.148;17.128;2023-10-08T05:46:16;100025.94;;;20.00
24740;BMP280;45234;48.148;17.128;2023-10-08T05:48:46;100033.06;;;20.04
24740;BMP280;45234;48.148;17.128;2023-10-08T05:51:29;100024.41;;;20.09
24740;BMP280;45234;48.148;17.128;2023-10-08T05:54:23;100016.53;;;20.14
24740;BMP280;45234;48.148;17.128;2023-10-08T05:56:58;100031.84;;;20.27
24740;BMP280;45234;48.148;17.128;2023-10-08T05:59:51;100018.94;;;20.46
24740;BMP280;45234;48.148;17.128;2023-10-08T06:02:32;100026.88;;;20.71
24740;BMP280;45234;48.148;17.128;2023-10-08T06:05:06;100027.66;;;20.92
24740;BMP280;45234;48.148;17.128;2023-10-08T06:10:32;100048.19;;;21.05
24740;BMP280;45234;48.148;17.128;2023-10-08T06:15:51;100043.88;;;21.60
24740;BMP280;45234;48.148;17.128;2023-10-08T06:18:33;100034.75;;;21.91
24740;BMP280;45234;48.148;17.128;2023-10-08T06:21:05;100042.53;;;22.17
24740;BMP280;45234;48.148;17.128;2023-10-08T06:23:39;100039.19;;;22.45
24740;BMP280;45234;48.148;17.128;2023-10-08T06:26:09;100051.16;;;22.66
24740;BMP280;45234;48.148;17.128;2023-10-08T06:28:43;100030.13;;;22.85
24740;BMP280;45234;48.148;17.128;2023-10-08T06:31:11;100038.06;;;23.09
24740;BMP280;45234;48.148;17.128;2023-10-08T06:33:40;100038.22;;;23.22
24740;BMP280;45234;48.148;17.128;2023-10-08T06:36:08;100040.28;;;23.49
24740;BMP280;45234;48.148;17.128;2023-10-08T06:38:44;100035.84;;;23.63
24740;BMP280;45234;48.148;17.128;2023-10-08T06:41:16;100049.38;;;23.81
24740;BMP280;45234;48.148;17.128;2023-10-08T06:44:06;100044.03;;;24.04
24740;BMP280;45234;48.148;17.128;2023-10-08T06:46:32;100059.78;;;24.15
24740;BMP280;45234;48.148;17.128;2023-10-08T06:49:01;100048.34;;;24.19
24740;BMP280;45234;48.148;17.128;2023-10-08T06:51:36;100054.84;;;24.27
24740;BMP280;45234;48.148;17.128;2023-10-08T06:54:03;100054.00;;;24.45
24740;BMP280;45234;48.148;17.128;2023-10-08T06:56:30;100057.00;;;24.57
24740;BMP280;45234;48.148;17.128;2023-10-08T06:59:00;100062.91;;;24.68
24740;BMP280;45234;48.148;17.128;2023-10-08T07:01:29;100057.25;;;24.88
24740;BMP280;45234;48.148;17.128;2023-10-08T07:04:06;100052.75;;;25.02
24740;BMP280;45234;48.148;17.128;2023-10-08T07:06:40;100061.16;;;24.90
24740;BMP280;45234;48.148;17.128;2023-10-08T07:09:07;100067.06;;;24.87
24740;BMP280;45234;48.148;17.128;2023-10-08T07:12:00;100057.06;;;24.98
24740;BMP280;45234;48.148;17.128;2023-10-08T07:14:40;100073.97;;;25.02
24740;BMP280;45234;48.148;17.128;2023-10-08T07:17:09;100072.38;;;24.87
24740;BMP280;45234;48.148;17.128;2023-10-08T07:19:38;100071.69;;;24.82
24740;BMP280;45234;48.148;17.128;2023-10-08T07:22:08;100073.34;;;24.78
24740;BMP280;45234;48.148;17.128;2023-10-08T07:24:46;100087.59;;;24.49
24740;BMP280;45234;48.148;17.128;2023-10-08T07:27:18;100097.09;;;24.18
24740;BMP280;45234;48.148;17.128;2023-10-08T07:29:49;100092.28;;;24.01
24740;BMP280;45234;48.148;17.128;2023-10-08T07:32:16;100077.97;;;23.84
24740;BMP280;45234;48.148;17.128;2023-10-08T07:34:46;100080.22;;;23.72
24740;BMP280;45234;48.148;17.128;2023-10-08T07:37:13;100059.56;;;23.55
24740;BMP280;45234;48.148;17.128;2023-10-08T07:39:41;100073.16;;;23.43
24740;BMP280;45234;48.148;17.128;2023-10-08T07:42:14;100076.16;;;23.37
24740;BMP280;45234;48.148;17.128;2023-10-08T07:44:41;100093.25;;;23.44
24740;BMP280;45234;48.148;17.128;2023-10-08T07:47:11;100086.94;;;23.40
24740;BMP280;45234;48.148;17.128;2023-10-08T07:49:40;100092.53;;;23.39
24740;BMP280;45234;48.148;17.128;2023-10-08T07:52:10;100093.56;;;23.38
24740;BMP280;45234;48.148;17.128;2023-10-08T07:54:43;100090.13;;;22.84
24740;BMP280;45234;48.148;17.128;2023-10-08T07:57:10;100093.56;;;23.38
24740;BMP280;45234;48.148;17.128;2023-10-08T07:59:40;100093.16;;;23.54
24740;BMP280;45234;48.148;17.128;2023-10-08T08:02:16;100083.56;;;23.58
24740;BMP280;45234;48.148;17.128;2023-10-08T08:04:45;100089.88;;;23.62
24740;BMP280;45234;48.148;17.128;2023-10-08T08:07:18;100090.41;;;23.59
24740;BMP280;45234;48.148;17.128;2023-10-08T08:09:49;100097.34;;;23.55
24740;BMP280;45234;48.148;17.128;2023-10-08T08:12:21;100105.84;;;23.52
24740;BMP280;45234;48.148;17.128;2023-10-08T08:14:52;100102.47;;;23.23
24740;BMP280;45234;48.148;17.128;2023-10-08T08:17:20;100102.00;;;23.16
24740;BMP280;45234;48.148;17.128;2023-10-08T08:19:52;100117.97;;;23.06
24740;BMP280;45234;48.148;17.128;2023-10-08T08:22:21;100116.47;;;22.95
24740;BMP280;45234;48.148;17.128;2023-10-08T08:24:53;100119.75;;;22.81
24740;BMP280;45234;48.148;17.128;2023-10-08T08:27:30;100139.28;;;22.85
24740;BMP280;45234;48.148;17.128;2023-10-08T08:30:01;100138.88;;;22.68
24740;BMP280;45234;48.148;17.128;2023-10-08T08:32:38;100141.31;;;22.60
24740;BMP280;45234;48.148;17.128;2023-10-08T08:35:12;100162.22;;;22.51
24740;BMP280;45234;48.148;17.128;2023-10-08T08:37:44;100145.25;;;22.62
24740;BMP280;45234;48.148;17.128;2023-10-08T08:40:13;100189.91;;;22.64
24740;BMP280;45234;48.148;17.128;2023-10-08T08:42:49;100220.88;;;22.48
24740;BMP280;45234;48.148;17.128;2023-10-08T08:45:20;100221.66;;;21.59
24740;BMP280;45234;48.148;17.128;2023-10-08T08:47:48;100250.66;;;21.13
24740;BMP280;45234;48.148;17.128;2023-10-08T08:50:15;100271.78;;;20.56
24740;BMP280;45234;48.148;17.128;2023-10-08T08:52:44;100287.13;;;20.22
24740;BMP280;45234;48.148;17.128;2023-10-08T08:55:15;100298.81;;;19.99
24740;BMP280;45234;48.148;17.128;2023-10-08T08:57:47;100304.31;;;19.66
24740;BMP280;45234;48.148;17.128;2023-10-08T09:00:18;100309.75;;;19.54
24740;BMP280;45234;48.148;17.128;2023-10-08T09:02:46;100300.88;;;19.39
24740;BMP280;45234;48.148;17.128;2023-10-08T09:05:15;100309.16;;;19.25
24740;BMP280;45234;48.148;17.128;2023-10-08T09:10:23;100320.69;;;19.46
24740;BMP280;45234;48.148;17.128;2023-10-08T09:12:57;100334.25;;;19.38
24740;BMP280;45234;48.148;17.128;2023-10-08T09:15:27;100350.13;;;19.21
24740;BMP280;45234;48.148;17.128;2023-10-08T09:17:55;100361.03;;;18.92
24740;BMP280;45234;48.148;17.128;2023-10-08T09:20:23;100360.91;;;18.65
24740;BMP280;45234;48.148;17.128;2023-10-08T09:23:11;100371.25;;;18.38
24740;BMP280;45234;48.148;17.128;2023-10-08T09:25:44;100386.03;;;18.44
24740;BMP280;45234;48.148;17.128;2023-10-08T09:28:11;100393.56;;;18.24
24740;BMP280;45234;48.148;17.128;2023-10-08T09:30:42;100413.16;;;17.88
24740;BMP280;45234;48.148;17.128;2023-10-08T09:33:13;100403.91;;;17.85
24740;BMP280;45234;48.148;17.128;2023-10-08T09:35:41;100426.28;;;17.76
24740;BMP280;45234;48.148;17.128;2023-10-08T09:38:08;100429.75;;;17.65
24740;BMP280;45234;48.148;17.128;2023-10-08T09:40:51;100428.25;;;17.69
24740;BMP280;45234;48.148;17.128;2023-10-08T09:43:20;100424.41;;;17.60
24740;BMP280;45234;48.148;17.128;2023-10-08T09:45:55;100449.16;;;17.41
24740;BMP280;45234;48.148;17.128;2023-10-08T09:48:26;100449.38;;;17.27
24740;BMP280;45234;48.148;17.128;2023-10-08T09:50:55;100460.44;;;17.29
24740;BMP280;45234;48.148;17.128;2023-10-08T09:53:43;100460.97;;;17.08
24740;BMP280;45234;48.148;17.128;2023-10-08T09:56:15;100459.38;;;17.07
24740;BMP280;45234;48.148;17.128;2023-10-08T09:58:43;100456.19;;;16.93
24740;BMP280;45234;48.148;17.128;2023-10-08T10:01:11;100463.19;;;16.70
24740;BMP280;45234;48.148;17.128;2023-10-08T10:03:38;100479.16;;;16.80
24740;BMP280;45234;48.148;17.128;2023-10-08T10:06:13;100488.06;;;16.79
24740;BMP280;45234;48.148;17.128;2023-10-08T10:08:42;100495.66;;;16.80
24740;BMP280;45234;48.148;17.128;2023-10-08T10:11:09;100516.00;;;16.67
24740;BMP280;45234;48.148;17.128;2023-10-08T10:13:45;100510.03;;;16.48
24740;BMP280;45234;48.148;17.128;2023-10-08T10:16:21;100509.50;;;16.57
24740;BMP280;45234;48.148;17.128;2023-10-08T10:18:49;100501.19;;;16.60
24740;BMP280;45234;48.148;17.128;2023-10-08T10:23:48;100522.31;;;16.47
24740;BMP280;45234;48.148;17.128;2023-10-08T10:26:34;100527.28;;;16.37
24740;BMP280;45234;48.148;17.128;2023-10-08T10:31:35;100525.47;;;16.49
24740;BMP280;45234;48.148;17.128;2023-10-08T10:34:08;100539.88;;;16.58
24740;BMP280;45234;48.148;17.128;2023-10-08T10:36:39;100550.41;;;16.52
24740;BMP280;45234;48.148;17.128;2023-10-08T10:39:07;100547.75;;;16.40
24740;BMP280;45234;48.148;17.128;2023-10-08T10:41:44;100563.28;;;16.17
24740;BMP280;45234;48.148;17.128;2023-10-08T10:44:13;100567.25;;;16.26
24740;BMP280;45234;48.148;17.128;2023-10-08T10:46:44;100574.25;;;15.89
24740;BMP280;45234;48.148;17.128;2023-10-08T10:49:21;100577.16;;;15.99
24740;BMP280;45234;48.148;17.128;2023-10-08T10:51:50;100574.63;;;15.43
24740;BMP280;45234;48.148;17.128;2023-10-08T10:54:24;100591.88;;;15.69
24740;BMP280;45234;48.148;17.128;2023-10-08T10:56:52;100575.91;;;15.59
24740;BMP280;45234;48.148;17.128;2023-10-08T10:59:46;100582.03;;;15.46
24740;BMP280;45234;48.148;17.128;2023-10-08T11:02:20;100588.00;;;15.53
24740;BMP280;45234;48.148;17.128;2023-10-08T11:04:59;100584.03;;;15.50
24740;BMP280;45234;48.148;17.128;2023-10-08T11:07:35;100597.53;;;15.41
24740;BMP280;45234;48.148;17.128;2023-10-08T11:10:03;100598.47;;;15.53
24740;BMP280;45234;48.148;17.128;2023-10-08T11:12:36;100613.03;;;15.36
24740;BMP280;45234;48.148;17.128;2023-10-08T11:15:20;100617.44;;;15.42
24740;BMP280;45234;48.148;17.128;2023-10-08T11:17:50;100610.75;;;15.46
24740;BMP280;45234;48.148;17.128;2023-10-08T11:20:28;100613.28;;;15.34
24740;BMP280;45234;48.148;17.128;2023-10-08T11:22:56;100613.72;;;15.56
24740;BMP280;45234;48.148;17.128;2023-10-08T11:25:53;100618.50;;;15.59
24740;BMP280;45234;48.148;17.128;2023-10-08T11:28:20;100629.31;;;15.38
24740;BMP280;45234;48.148;17.128;2023-10-08T11:30:48;100621.13;;;15.28
24740;BMP280;45234;48.148;17.128;2023-10-08T11:33:18;100620.38;;;15.21
24740;BMP280;45234;48.148;17.128;2023-10-08T11:36:00;100621.50;;;15.00
24740;BMP280;45234;48.148;17.128;2023-10-08T11:38:28;100616.41;;;15.11
24740;BMP280;45234;48.148;17.128;2023-10-08T11:41:14;100616.03;;;15.01
24740;BMP280;45234;48.148;17.128;2023-10-08T11:43:52;100626.00;;;15.18
24740;BMP280;45234;48.148;17.128;2023-10-08T11:46:26;100634.59;;;15.25
24740;BMP280;45234;48.148;17.128;2023-10-08T11:49:06;100640.81;;;15.30
24740;BMP280;45234;48.148;17.128;2023-10-08T11:51:34;100662.66;;;15.36
24740;BMP280;45234;48.148;17.128;2023-10-08T11:54:02;100668.38;;;15.58
24740;BMP280;45234;48.148;17.128;2023-10-08T11:56:29;100665.16;;;15.62
24740;BMP280;45234;48.148;17.128;2023-10-08T11:58:56;100659.94;;;15.62
24740;BMP280;45234;48.148;17.128;2023-10-08T12:01:24;100664.72;;;15.65
24740;BMP280;45234;48.148;17.128;2023-10-08T12:03:51;100680.06;;;15.80
24740;BMP280;45234;48.148;17.128;2023-10-08T12:06:19;100694.28;;;15.91
24740;BMP280;45234;48.148;17.128;2023-10-08T12:08:47;100688.84;;;15.67
24740;BMP280;45234;48.148;17.128;2023-10-08T12:11:20;100685.88;;;15.12
24740;BMP280;45234;48.148;17.128;2023-10-08T12:13:49;100680.53;;;15.39
24740;BMP280;45234;48.148;17.128;2023-10-08T12:16:17;100678.69;;;15.46
24740;BMP280;45234;48.148;17.128;2023-10-08T12:18:50;100690.50;;;15.55
24740;BMP280;45234;48.148;17.128;2023-10-08T12:21:26;100679.25;;;15.55
24740;BMP280;45234;48.148;17.128;2023-10-08T12:24:00;100691.75;;;15.46
24740;BMP280;45234;48.148;17.128;2023-10-08T12:26:32;100686.13;;;15.49
24740;BMP280;45234;48.148;17.128;2023-10-08T12:28:59;100683.69;;;15.54
24740;BMP280;45234;48.148;17.128;2023-10-08T12:31:27;100681.06;;;15.54
24740;BMP280;45234;48.148;17.128;2023-10-08T12:33:55;100682.19;;;15.40
24740;BMP280;45234;48.148;17.128;2023-10-08T12:36:27;100692.81;;;15.38
24740;BMP280;45234;48.148;17.128;2023-10-08T12:38:59;100683.34;;;15.44
24740;BMP280;45234;48.148;17.128;2023-10-08T12:41:34;100689.34;;;15.51
24740;BMP280;45234;48.148;17.128;2023-10-08T12:44:05;100697.91;;;15.58
24740;BMP280;45234;48.148;17.128;2023-10-08T12:46:34;100693.69;;;15.57
24740;BMP280;45234;48.148;17.128;2023-10-08T12:49:01;100691.06;;;15.64
24740;BMP280;45234;48.148;17.128;2023-10-08T12:51:29;100689.63;;;15.68
24740;BMP280;45234;48.148;17.128;2023-10-08T12:54:01;100696.31;;;15.88
24740;BMP280;45234;48.148;17.128;2023-10-08T12:56:35;100697.50;;;15.93
24740;BMP280;45234;48.148;17.128;2023-10-08T12:59:05;100697.41;;;15.74
24740;BMP280;45234;48.148;17.128;2023-10-08T13:01:35;100703.47;;;15.68
24740;BMP280;45234;48.148;17.128;2023-10-08T13:04:03;100693.19;;;15.42
24740;BMP280;45234;48.148;17.128;2023-10-08T13:06:35;100706.59;;;15.52
24740;BMP280;45234;48.148;17.128;2023-10-08T13:09:05;100706.50;;;15.34
24740;BMP280;45234;48.148;17.128;2023-10-08T13:11:40;100699.13;;;15.18
24740;BMP280;45234;48.148;17.128;2023-10-08T13:14:07;100708.16;;;15.22
24740;BMP280;45234;48.148;17.128;2023-10-08T13:16:34;100716.97;;;15.34
24740;BMP280;45234;48.148;17.128;2023-10-08T13:19:05;100728.41;;;15.39
24740;BMP280;45234;48.148;17.128;2023-10-08T13:21:36;100730.47;;;15.18
24740;BMP280;45234;48.148;17.128;2023-10-08T13:24:05;100732.53;;;15.02
24740;BMP280;45234;48.148;17.128;2023-10-08T13:26:37;100721.28;;;14.95
24740;BMP280;45234;48.148;17.128;2023-10-08T13:29:06;100722.09;;;15.02
24740;BMP280;45234;48.148;17.128;2023-10-08T13:31:34;100728.88;;;15.17
24740;BMP280;45234;48.148;17.128;2023-10-08T13:34:04;100731.25;;;15.25
24740;BMP280;45234;48.148;17.128;2023-10-08T13:36:39;100726.88;;;15.12
24740;BMP280;45234;48.148;17.128;2023-10-08T13:39:07;100731.47;;;15.17
24740;BMP280;45234;48.148;17.128;2023-10-08T13:41:37;100723.25;;;15.13
24740;BMP280;45234;48.148;17.128;2023-10-08T13:44:08;100730.66;;;15.23
24740;BMP280;45234;48.148;17.128;2023-10-08T13:46:36;100732.53;;;15.09
24740;BMP280;45234;48.148;17.128;2023-10-08T13:49:04;100740.50;;;15.21
24740;BMP280;45234;48.148;17.128;2023-10-08T13:51:33;100734.84;;;15.30
24740;BMP280;45234;48.148;17.128;2023-10-08T13:54:03;100742.84;;;15.35
24740;BMP280;45234;48.148;17.128;2023-10-08T13:56:33;100754.19;;;15.16
24740;BMP280;45234;48.148;17.128;2023-10-08T13:59:05;100756.00;;;15.15
24740;BMP280;45234;48.148;17.128;2023-10-08T14:01:42;100750.81;;;15.02
24740;BMP280;45234;48.148;17.128;2023-10-08T14:04:19;100754.59;;;15.13
24740;BMP280;45234;48.148;17.128;2023-10-08T14:06:47;100757.34;;;15.25
24740;BMP280;45234;48.148;17.128;2023-10-08T14:09:21;100754.53;;;15.33
24740;BMP280;45234;48.148;17.128;2023-10-08T14:11:49;100755.34;;;15.33
24740;BMP280;45234;48.148;17.128;2023-10-08T14:14:20;100747.72;;;15.25
24740;BMP280;45234;48.148;17.128;2023-10-08T14:16:51;100746.97;;;15.11
24740;BMP280;45234;48.148;17.128;2023-10-08T14:19:20;100740.56;;;15.07
24740;BMP280;45234;48.148;17.128;2023-10-08T14:21:55;100743.56;;;15.11
24740;BMP280;45234;48.148;17.128;2023-10-08T14:24:32;100734.94;;;15.10
24740;BMP280;45234;48.148;17.128;2023-10-08T14:27:05;100744.38;;;15.11